Adna, Washington
Current Conditions -  °F | °C
As of 5:55 PM on Monday 24 Nov 2014 (Local Time) from KCLS Reporting Station
Light Rain Light Rain  
Wind Chill: 50°   Ceiling: NA
Heat Index: 50°   Visibility: 9mi
Dew Point: 48°   Wind: 15mph
Humidity: 94%   Direction: 180°S
Pressure: 30.15"   Gusts: 24mph
Location:  46.63°N, 123.06°W
Report Text: KCLS 250155Z AUTO 18013G21KT 9SM -RA 10/09 A3015 RMK AO2
Loading
Personal Weather Stations






























Interactive Weather Map New forecast layout! Learn more

10-Day Weather Forecast

Advertisements
Track Severe Weather on mobile